UPS15 VIDP-EDDK
Flight info
| Callsign | UPS15 |
|---|---|
| Flight time | N/A |
| Altitude | 28000 |
| Route | OROTI7E OROTI A589 ASARI A466 SULOM DCT INDEK DCT NONIB/N0512F300 DCT PS/N0513F290 P500 ATROL/N0511F300 P500 GERRY/N0513F290 P500 MOTMO/N0511F300 P500 FIRUZ/K0946F300 Z407 VAJEN Z767 DAROW L181 BUTRA Z407 USETU Z514 OGNOB Y92 BUPOR T388 POGON/N0508F300 A477 BABUM A909 TUGTA B701 KRS/N0502F320 B143 TUNEK A909 RODAR N644 LAGAS DCT SARPI UG67 TBN UM11 CRM UL746 ODERO DCT OPT/N0493F340 DCT IRLOX DCT BUDOP DCT BALUX DCT BEGLA DCT STO DCT DITIS DCT VEXIL DCT KUMER DCT PIROT/N0490F350 N850 LARBU/N0489F340 DCT PODER Z189 RUNER T858 KOPAG KOPAG1K |
| Aircraft | B744/H-SDE3FGHIM1M2RWXY/LB1 |
Departure
| Time | 2026-04-29 09:17 |
|---|---|
| Airport | Indira Gandhi International Airport (VIDP) |
Arrival
| Time | N/A |
|---|---|
| Airport | Cologne Bonn Airport (EDDK) |
| Time | Latitude | Longitude | Altitude | Speed | Heading |
|---|---|---|---|---|---|
| 2026-04-29 08:41 | 28.55946 | 77.09956 | 780 ft | 0 kts | 207° |
| 2026-04-29 09:05 | 28.55935 | 77.09947 | 780 ft | 5 kts | 221° |
| 2026-04-29 09:05 | 28.55927 | 77.09903 | 780 ft | 7 kts | 280° |
| 2026-04-29 09:05 | 28.55947 | 77.09812 | 780 ft | 15 kts | 285° |
| 2026-04-29 09:06 | 28.55975 | 77.09693 | 780 ft | 16 kts | 285° |
| 2026-04-29 09:06 | 28.56005 | 77.09564 | 780 ft | 17 kts | 285° |
| 2026-04-29 09:06 | 28.56038 | 77.09427 | 780 ft | 19 kts | 284° |
| 2026-04-29 09:06 | 28.56070 | 77.09280 | 780 ft | 20 kts | 284° |
| 2026-04-29 09:07 | 28.56106 | 77.09127 | 780 ft | 20 kts | 285° |
| 2026-04-29 09:07 | 28.56142 | 77.08974 | 780 ft | 20 kts | 284° |
| 2026-04-29 09:07 | 28.56177 | 77.08824 | 780 ft | 19 kts | 285° |
| 2026-04-29 09:07 | 28.56210 | 77.08680 | 780 ft | 19 kts | 284° |
| 2026-04-29 09:08 | 28.56242 | 77.08540 | 780 ft | 18 kts | 284° |
| 2026-04-29 09:08 | 28.56274 | 77.08404 | 780 ft | 18 kts | 284° |
| 2026-04-29 09:08 | 28.56305 | 77.08272 | 780 ft | 17 kts | 285° |
| 2026-04-29 09:08 | 28.56334 | 77.08143 | 780 ft | 17 kts | 284° |
| 2026-04-29 09:09 | 28.56367 | 77.08018 | 780 ft | 15 kts | 300° |
| 2026-04-29 09:09 | 28.56438 | 77.08006 | 780 ft | 8 kts | 34° |
| 2026-04-29 09:09 | 28.56473 | 77.08053 | 780 ft | 8 kts | 55° |
| 2026-04-29 09:09 | 28.56498 | 77.08103 | 780 ft | 7 kts | 62° |
| 2026-04-29 09:10 | 28.56521 | 77.08153 | 780 ft | 7 kts | 62° |
| 2026-04-29 09:10 | 28.56544 | 77.08202 | 779 ft | 7 kts | 62° |
| 2026-04-29 09:10 | 28.56565 | 77.08250 | 779 ft | 7 kts | 69° |
| 2026-04-29 09:10 | 28.56575 | 77.08293 | 779 ft | 3 kts | 63° |
| 2026-04-29 09:11 | 28.56590 | 77.08314 | 779 ft | 5 kts | 52° |
| 2026-04-29 09:11 | 28.56616 | 77.08354 | 779 ft | 8 kts | 56° |
| 2026-04-29 09:11 | 28.56649 | 77.08418 | 779 ft | 11 kts | 60° |
| 2026-04-29 09:11 | 28.56699 | 77.08501 | 777 ft | 14 kts | 44° |
| 2026-04-29 09:12 | 28.56772 | 77.08578 | 778 ft | 13 kts | 43° |
| 2026-04-29 09:12 | 28.56844 | 77.08652 | 779 ft | 15 kts | 42° |
| 2026-04-29 09:12 | 28.56926 | 77.08732 | 779 ft | 16 kts | 39° |
| 2026-04-29 09:12 | 28.56994 | 77.08796 | 779 ft | 6 kts | 45° |
| 2026-04-29 09:13 | 28.57016 | 77.08823 | 779 ft | 4 kts | 45° |
| 2026-04-29 09:13 | 28.57039 | 77.08853 | 779 ft | 6 kts | 56° |
| 2026-04-29 09:13 | 28.57051 | 77.08904 | 780 ft | 7 kts | 89° |
| 2026-04-29 09:13 | 28.57048 | 77.08984 | 780 ft | 19 kts | 92° |
| 2026-04-29 09:14 | 28.57040 | 77.09333 | 780 ft | 69 kts | 91° |
| 2026-04-29 09:14 | 28.57025 | 77.10065 | 779 ft | 114 kts | 91° |
| 2026-04-29 09:14 | 28.57002 | 77.11109 | 780 ft | 149 kts | 91° |
| 2026-04-29 09:14 | 28.57017 | 77.12276 | 780 ft | 74 kts | 308° |
| 2026-04-29 09:15 | 28.56992 | 77.12399 | 785 ft | 0 kts | 246° |
| 2026-04-29 09:15 | 28.57222 | 77.09435 | 780 ft | 774 kts | 246° |
| 2026-04-29 09:15 | 28.56926 | 77.08942 | 780 ft | 774 kts | 330° |
| 2026-04-29 09:15 | 28.57051 | 77.08923 | 780 ft | 0 kts | 94° |
| 2026-04-29 09:16 | 28.57046 | 77.09079 | 780 ft | 52 kts | 91° |
| 2026-04-29 09:16 | 28.57030 | 77.09740 | 780 ft | 114 kts | 92° |
| 2026-04-29 09:16 | 28.57002 | 77.10847 | 780 ft | 163 kts | 91° |
| 2026-04-29 09:16 | 28.56965 | 77.12294 | 872 ft | 198 kts | 92° |
| 2026-04-29 09:17 | 28.56937 | 77.13862 | 1480 ft | 201 kts | 88° |
| 2026-04-29 09:17 | 28.57001 | 77.15511 | 1731 ft | 223 kts | 84° |
| 2026-04-29 09:17 | 28.56982 | 77.17332 | 1986 ft | 237 kts | 97° |
| 2026-04-29 09:17 | 28.56789 | 77.19223 | 2273 ft | 244 kts | 95° |
| 2026-04-29 09:18 | 28.56689 | 77.21166 | 2545 ft | 249 kts | 91° |
| 2026-04-29 09:18 | 28.56667 | 77.23146 | 2842 ft | 252 kts | 91° |
| 2026-04-29 09:18 | 28.56641 | 77.25154 | 3133 ft | 255 kts | 91° |
| 2026-04-29 09:18 | 28.56593 | 77.27170 | 3424 ft | 256 kts | 92° |
| 2026-04-29 09:19 | 28.56544 | 77.29206 | 3710 ft | 258 kts | 92° |
| 2026-04-29 09:19 | 28.56498 | 77.31251 | 4007 ft | 259 kts | 91° |
| 2026-04-29 09:19 | 28.56453 | 77.33281 | 4265 ft | 262 kts | 91° |
| 2026-04-29 09:19 | 28.56406 | 77.35363 | 4528 ft | 265 kts | 91° |
| 2026-04-29 09:20 | 28.56221 | 77.37447 | 4796 ft | 265 kts | 110° |
| 2026-04-29 09:20 | 28.55267 | 77.39200 | 5122 ft | 262 kts | 139° |
| 2026-04-29 09:20 | 28.53702 | 77.40200 | 5455 ft | 259 kts | 168° |
| 2026-04-29 09:20 | 28.51928 | 77.40244 | 5791 ft | 256 kts | 196° |
| 2026-04-29 09:21 | 28.50352 | 77.39375 | 6132 ft | 253 kts | 215° |
| 2026-04-29 09:21 | 28.48928 | 77.38201 | 6423 ft | 253 kts | 217° |
| 2026-04-29 09:21 | 28.47524 | 77.36992 | 6708 ft | 253 kts | 217° |
| 2026-04-29 09:21 | 28.46123 | 77.35814 | 7001 ft | 254 kts | 217° |
| 2026-04-29 09:22 | 28.44690 | 77.34625 | 7279 ft | 254 kts | 217° |
| 2026-04-29 09:22 | 28.43264 | 77.33440 | 7562 ft | 254 kts | 217° |
| 2026-04-29 09:22 | 28.41841 | 77.32252 | 7840 ft | 253 kts | 217° |
| 2026-04-29 09:22 | 28.40425 | 77.31072 | 8134 ft | 253 kts | 217° |
| 2026-04-29 09:23 | 28.39009 | 77.29893 | 8417 ft | 253 kts | 218° |
| 2026-04-29 09:23 | 28.37570 | 77.28695 | 8690 ft | 260 kts | 218° |
| 2026-04-29 09:23 | 28.36258 | 77.27285 | 8996 ft | 261 kts | 242° |
| 2026-04-29 09:23 | 28.35559 | 77.25399 | 9367 ft | 262 kts | 253° |
| 2026-04-29 09:24 | 28.35057 | 77.23428 | 9675 ft | 265 kts | 255° |
| 2026-04-29 09:24 | 28.34563 | 77.21395 | 9980 ft | 269 kts | 255° |
| 2026-04-29 09:24 | 28.34038 | 77.19346 | 10274 ft | 272 kts | 254° |
| 2026-04-29 09:24 | 28.33496 | 77.17279 | 10576 ft | 274 kts | 254° |
| 2026-04-29 09:25 | 28.32955 | 77.15193 | 10871 ft | 276 kts | 254° |
| 2026-04-29 09:25 | 28.32413 | 77.13093 | 11178 ft | 279 kts | 254° |
| 2026-04-29 09:25 | 28.31866 | 77.10976 | 11477 ft | 280 kts | 254° |
| 2026-04-29 09:25 | 28.31334 | 77.08875 | 11777 ft | 281 kts | 259° |
| 2026-04-29 09:26 | 28.31283 | 77.06690 | 12123 ft | 278 kts | 281° |
| 2026-04-29 09:26 | 28.31822 | 77.04588 | 12452 ft | 277 kts | 287° |
| 2026-04-29 09:26 | 28.32437 | 77.02511 | 12755 ft | 278 kts | 287° |
| 2026-04-29 09:26 | 28.33056 | 77.00434 | 13051 ft | 278 kts | 287° |
| 2026-04-29 09:27 | 28.33669 | 76.98345 | 13319 ft | 280 kts | 287° |
| 2026-04-29 09:27 | 28.34283 | 76.96243 | 13568 ft | 281 kts | 287° |
| 2026-04-29 09:27 | 28.34900 | 76.94134 | 13801 ft | 282 kts | 287° |
| 2026-04-29 09:27 | 28.35518 | 76.92026 | 14035 ft | 282 kts | 287° |
| 2026-04-29 09:28 | 28.36129 | 76.89942 | 14257 ft | 282 kts | 287° |
| 2026-04-29 09:28 | 28.36746 | 76.87832 | 14493 ft | 281 kts | 287° |
| 2026-04-29 09:28 | 28.37361 | 76.85726 | 14732 ft | 281 kts | 287° |
| 2026-04-29 09:28 | 28.37979 | 76.83621 | 14941 ft | 281 kts | 289° |
| 2026-04-29 09:29 | 28.38744 | 76.81586 | 15184 ft | 280 kts | 291° |
| 2026-04-29 09:29 | 28.40241 | 76.77526 | 15645 ft | 278 kts | 291° |
| 2026-04-29 09:29 | 28.40994 | 76.75511 | 15880 ft | 277 kts | 291° |
| 2026-04-29 09:30 | 28.41744 | 76.73510 | 16110 ft | 275 kts | 291° |
| 2026-04-29 09:30 | 28.42478 | 76.71541 | 16337 ft | 274 kts | 291° |
| 2026-04-29 09:30 | 28.43218 | 76.69554 | 16561 ft | 272 kts | 291° |
| 2026-04-29 09:30 | 28.43952 | 76.67583 | 16802 ft | 270 kts | 291° |
| 2026-04-29 09:31 | 28.44679 | 76.65632 | 17029 ft | 268 kts | 291° |
| 2026-04-29 09:31 | 28.45401 | 76.63690 | 17252 ft | 265 kts | 291° |
| 2026-04-29 09:31 | 28.46116 | 76.61768 | 17487 ft | 263 kts | 291° |
| 2026-04-29 09:31 | 28.46828 | 76.59854 | 17652 ft | 262 kts | 291° |
| 2026-04-29 09:32 | 28.47537 | 76.57943 | 17827 ft | 262 kts | 291° |
| 2026-04-29 09:32 | 28.48235 | 76.56064 | 17970 ft | 261 kts | 291° |
| 2026-04-29 09:32 | 28.48947 | 76.54146 | 17996 ft | 266 kts | 291° |
| 2026-04-29 09:32 | 28.49673 | 76.52188 | 17990 ft | 272 kts | 291° |
| 2026-04-29 09:33 | 28.50422 | 76.50168 | 17888 ft | 282 kts | 291° |
| 2026-04-29 09:33 | 28.51194 | 76.48085 | 17828 ft | 290 kts | 291° |
| 2026-04-29 09:33 | 28.51989 | 76.45950 | 17752 ft | 297 kts | 294° |
| 2026-04-29 09:33 | 28.52884 | 76.43804 | 17691 ft | 304 kts | 293° |
| 2026-04-29 09:34 | 28.53745 | 76.41590 | 17680 ft | 308 kts | 292° |
| 2026-04-29 09:34 | 28.54612 | 76.39379 | 17682 ft | 313 kts | 293° |
| 2026-04-29 09:34 | 28.55525 | 76.37119 | 17685 ft | 316 kts | 293° |
| 2026-04-29 09:34 | 28.56449 | 76.34833 | 17690 ft | 319 kts | 293° |
| 2026-04-29 09:35 | 28.57371 | 76.32528 | 17694 ft | 322 kts | 293° |
| 2026-04-29 09:35 | 28.58297 | 76.30208 | 17676 ft | 322 kts | 293° |
| 2026-04-29 09:35 | 28.59226 | 76.27883 | 17671 ft | 322 kts | 293° |
| 2026-04-29 09:35 | 28.60156 | 76.25560 | 17669 ft | 322 kts | 293° |
| 2026-04-29 09:36 | 28.61084 | 76.23238 | 17671 ft | 323 kts | 293° |
| 2026-04-29 09:36 | 28.62000 | 76.20942 | 17670 ft | 323 kts | 293° |
| 2026-04-29 09:36 | 28.62928 | 76.18617 | 17670 ft | 323 kts | 293° |
| 2026-04-29 09:36 | 28.63855 | 76.16291 | 17664 ft | 322 kts | 293° |
| 2026-04-29 09:37 | 28.64781 | 76.13967 | 17662 ft | 322 kts | 293° |
| 2026-04-29 09:37 | 28.65707 | 76.11643 | 17663 ft | 322 kts | 293° |
| 2026-04-29 09:37 | 28.66630 | 76.09323 | 17663 ft | 322 kts | 293° |
| 2026-04-29 09:37 | 28.67557 | 76.06995 | 17661 ft | 322 kts | 293° |
| 2026-04-29 09:38 | 28.68478 | 76.04678 | 17658 ft | 322 kts | 293° |
| 2026-04-29 09:38 | 28.69399 | 76.02358 | 17657 ft | 321 kts | 293° |
| 2026-04-29 09:38 | 28.70320 | 76.00039 | 17653 ft | 321 kts | 293° |
| 2026-04-29 09:38 | 28.71227 | 75.97753 | 17652 ft | 321 kts | 293° |
| 2026-04-29 09:39 | 28.72147 | 75.95434 | 17656 ft | 321 kts | 292° |
| 2026-04-29 09:39 | 28.73065 | 75.93117 | 17649 ft | 321 kts | 293° |
| 2026-04-29 09:39 | 28.73983 | 75.90801 | 17654 ft | 321 kts | 293° |
| 2026-04-29 09:39 | 28.75132 | 75.88625 | 17678 ft | 324 kts | 309° |
| 2026-04-29 09:40 | 28.76831 | 75.86919 | 17675 ft | 329 kts | 323° |
| 2026-04-29 09:40 | 28.78763 | 75.85502 | 17648 ft | 330 kts | 324° |
| 2026-04-29 09:40 | 28.80721 | 75.84130 | 17647 ft | 331 kts | 324° |
| 2026-04-29 09:40 | 28.82676 | 75.82749 | 17645 ft | 331 kts | 324° |
| 2026-04-29 09:41 | 28.84596 | 75.81368 | 17645 ft | 331 kts | 324° |
| 2026-04-29 09:41 | 28.86544 | 75.79965 | 17644 ft | 331 kts | 324° |
| 2026-04-29 09:41 | 28.88493 | 75.78571 | 17644 ft | 331 kts | 324° |
| 2026-04-29 09:41 | 28.90448 | 75.77173 | 17639 ft | 332 kts | 324° |
| 2026-04-29 09:42 | 28.92402 | 75.75772 | 17649 ft | 332 kts | 324° |
| 2026-04-29 09:42 | 28.94358 | 75.74368 | 17642 ft | 332 kts | 324° |
| 2026-04-29 09:42 | 28.96311 | 75.72966 | 17639 ft | 332 kts | 324° |
| 2026-04-29 09:42 | 28.98240 | 75.71582 | 17643 ft | 332 kts | 324° |
| 2026-04-29 09:43 | 29.00194 | 75.70179 | 17638 ft | 331 kts | 324° |
| 2026-04-29 09:43 | 29.02140 | 75.68780 | 17641 ft | 332 kts | 324° |
| 2026-04-29 09:43 | 29.04095 | 75.67375 | 17647 ft | 332 kts | 324° |
| 2026-04-29 09:43 | 29.06049 | 75.65969 | 17639 ft | 332 kts | 324° |
| 2026-04-29 09:44 | 29.08002 | 75.64565 | 17636 ft | 332 kts | 324° |
| 2026-04-29 09:44 | 29.09960 | 75.63154 | 17638 ft | 334 kts | 324° |
| 2026-04-29 09:44 | 29.11936 | 75.61731 | 17646 ft | 336 kts | 324° |
| 2026-04-29 09:44 | 29.13885 | 75.60329 | 18019 ft | 326 kts | 324° |
| 2026-04-29 09:45 | 29.15758 | 75.58982 | 18335 ft | 318 kts | 323° |
| 2026-04-29 09:45 | 29.17605 | 75.57649 | 18651 ft | 310 kts | 323° |
| 2026-04-29 09:45 | 29.19406 | 75.56348 | 18951 ft | 302 kts | 323° |
| 2026-04-29 09:45 | 29.21162 | 75.55081 | 19252 ft | 295 kts | 323° |
| 2026-04-29 09:46 | 29.22870 | 75.53848 | 19539 ft | 287 kts | 323° |
| 2026-04-29 09:46 | 29.24544 | 75.52638 | 19742 ft | 283 kts | 323° |
| 2026-04-29 09:46 | 29.26196 | 75.51443 | 19919 ft | 279 kts | 323° |
| 2026-04-29 09:46 | 29.27788 | 75.50222 | 20095 ft | 271 kts | 311° |
| 2026-04-29 09:47 | 29.28939 | 75.48596 | 20255 ft | 259 kts | 294° |
| 2026-04-29 09:47 | 29.29758 | 75.46816 | 20385 ft | 254 kts | 295° |
| 2026-04-29 09:47 | 29.30565 | 75.45030 | 20493 ft | 250 kts | 295° |
| 2026-04-29 09:47 | 29.31367 | 75.43269 | 20532 ft | 249 kts | 295° |
| 2026-04-29 09:48 | 29.32219 | 75.41530 | 20475 ft | 254 kts | 308° |
| 2026-04-29 09:48 | 29.33590 | 75.40143 | 20103 ft | 276 kts | 330° |
| 2026-04-29 09:48 | 29.35472 | 75.39460 | 19931 ft | 289 kts | 346° |
| 2026-04-29 09:48 | 29.37433 | 75.39142 | 20201 ft | 281 kts | 347° |
| 2026-04-29 09:49 | 29.39375 | 75.38862 | 20152 ft | 284 kts | 347° |
| 2026-04-29 09:49 | 29.41324 | 75.38554 | 20090 ft | 289 kts | 347° |
| 2026-04-29 09:49 | 29.43332 | 75.38222 | 20052 ft | 293 kts | 347° |
| 2026-04-29 09:49 | 29.45363 | 75.37893 | 20051 ft | 297 kts | 347° |
| 2026-04-29 09:50 | 29.47425 | 75.37564 | 20051 ft | 300 kts | 347° |
| 2026-04-29 09:50 | 29.49503 | 75.37231 | 20051 ft | 304 kts | 347° |
| 2026-04-29 09:50 | 29.51607 | 75.36892 | 20054 ft | 307 kts | 347° |
| 2026-04-29 09:50 | 29.53733 | 75.36549 | 20056 ft | 310 kts | 347° |
| 2026-04-29 09:51 | 29.55881 | 75.36202 | 20058 ft | 313 kts | 347° |
| 2026-04-29 09:51 | 29.58020 | 75.35858 | 20059 ft | 316 kts | 347° |